createdAt,value
2023-05-19T00:00:36.851Z,8.431
2023-05-19T00:01:35.058Z,8.481
2023-05-19T00:02:36.216Z,8.540
2023-05-19T00:03:35.221Z,8.572
2023-05-19T00:04:35.914Z,8.497
2023-05-19T00:05:35.462Z,8.484
2023-05-19T00:06:35.159Z,8.535
2023-05-19T00:07:35.746Z,8.610
2023-05-19T00:08:35.185Z,8.695
2023-05-19T00:09:35.609Z,8.668
2023-05-19T00:10:35.503Z,8.679
2023-05-19T00:11:34.917Z,8.692
2023-05-19T00:12:35.428Z,8.623
2023-05-19T00:13:35.915Z,8.695
2023-05-19T00:14:35.310Z,8.687
2023-05-19T00:15:35.870Z,8.650
2023-05-19T00:16:35.622Z,8.623
2023-05-19T00:17:35.282Z,8.583
2023-05-19T00:18:34.921Z,8.532
2023-05-19T00:19:35.655Z,8.412
2023-05-19T00:20:36.070Z,8.324
2023-05-19T00:21:35.531Z,8.268
2023-05-19T00:23:35.520Z,8.273
2023-05-19T00:24:34.945Z,8.198
2023-05-19T00:25:35.547Z,8.116
2023-05-19T00:26:35.027Z,8.102
2023-05-19T00:27:35.486Z,8.257
2023-05-19T00:28:34.926Z,8.310
2023-05-19T00:29:35.439Z,8.236
2023-05-19T00:30:35.279Z,8.166
2023-05-19T00:31:36.101Z,8.388
2023-05-19T00:32:35.760Z,8.473
2023-05-19T00:35:35.283Z,8.772
2023-05-19T00:36:34.833Z,8.772
2023-05-19T00:37:35.289Z,8.850
2023-05-19T00:38:35.790Z,8.895
2023-05-19T00:39:35.228Z,8.909
2023-05-19T00:40:36.564Z,9.050
2023-05-19T00:41:35.087Z,9.053
2023-05-19T00:42:35.662Z,8.994
2023-05-19T00:43:35.124Z,8.962
2023-05-19T00:44:35.582Z,8.909
2023-05-19T00:45:34.992Z,9.071
2023-05-19T00:46:35.663Z,9.079
2023-05-19T00:47:35.398Z,9.101
2023-05-19T00:48:35.125Z,9.165
2023-05-19T00:49:35.616Z,9.181
2023-05-19T00:50:35.859Z,9.202
2023-05-19T00:51:35.237Z,9.226
2023-05-19T00:52:35.715Z,9.210
2023-05-19T00:53:35.125Z,9.224
2023-05-19T00:54:35.599Z,9.280
2023-05-19T00:55:35.047Z,9.280
2023-05-19T00:56:35.882Z,9.306
2023-05-19T00:57:35.372Z,9.331
2023-05-19T00:58:35.998Z,9.349
2023-05-19T00:59:35.408Z,9.314
2023-05-19T01:00:35.509Z,9.344
2023-05-19T01:02:36.368Z,9.336
2023-05-19T01:03:35.859Z,9.405
2023-05-19T01:04:35.841Z,9.405
2023-05-19T01:05:35.411Z,9.371
2023-05-19T01:06:34.868Z,9.453
2023-05-19T01:07:35.334Z,9.443
2023-05-19T01:08:35.852Z,9.469
2023-05-19T01:09:35.291Z,9.453
2023-05-19T01:10:36.378Z,9.437
2023-05-19T01:11:35.750Z,9.456
2023-05-19T01:14:34.851Z,9.531
2023-05-19T01:15:35.317Z,9.488
2023-05-19T01:16:36.169Z,9.472
2023-05-19T01:17:35.060Z,9.469
2023-05-19T01:18:35.716Z,9.456
2023-05-19T01:19:35.236Z,9.389
2023-05-19T01:20:36.471Z,9.445
2023-05-19T01:21:34.948Z,9.368
2023-05-19T01:22:35.348Z,9.309
2023-05-19T01:23:35.867Z,9.266
2023-05-19T01:24:35.322Z,9.261
2023-05-19T01:25:36.499Z,9.339
2023-05-19T01:26:34.932Z,9.304
2023-05-19T01:27:35.347Z,9.250
2023-05-19T01:28:35.037Z,9.272
2023-05-19T01:29:35.518Z,9.266
2023-05-19T01:30:35.708Z,9.309
2023-05-19T01:32:35.191Z,9.317
2023-05-19T01:33:35.694Z,9.341
2023-05-19T01:34:35.147Z,9.290
2023-05-19T01:35:35.632Z,9.339
2023-05-19T01:36:35.096Z,9.387
2023-05-19T01:37:35.530Z,9.352
2023-05-19T01:38:35.030Z,9.290
2023-05-19T01:39:35.512Z,9.277
2023-05-19T01:40:35.815Z,9.248
2023-05-19T01:42:35.021Z,9.250
2023-05-19T01:43:35.514Z,9.293
2023-05-19T01:44:34.921Z,9.224
2023-05-19T01:45:35.402Z,9.226
2023-05-19T01:46:35.258Z,9.240
2023-05-19T01:47:34.925Z,9.234
2023-05-19T01:48:35.574Z,9.186
2023-05-19T01:49:35.028Z,9.218
2023-05-19T01:50:36.297Z,9.266
2023-05-19T01:52:35.245Z,9.264
2023-05-19T01:53:35.796Z,9.218
2023-05-19T01:54:35.230Z,9.205
2023-05-19T01:55:35.753Z,9.200
2023-05-19T01:56:35.251Z,9.120
2023-05-19T01:57:35.690Z,9.101
2023-05-19T01:58:35.044Z,9.146
2023-05-19T01:59:35.567Z,9.101
2023-05-19T02:00:35.767Z,9.088
2023-05-19T02:02:35.397Z,9.042
2023-05-19T02:03:35.863Z,9.085
2023-05-19T02:04:35.914Z,9.106
2023-05-19T02:06:35.159Z,9.058
2023-05-19T02:07:35.651Z,9.063
2023-05-19T02:08:35.079Z,9.074
2023-05-19T02:09:35.579Z,9.053
2023-05-19T02:10:35.621Z,9.031
2023-05-19T02:11:35.058Z,9.050
2023-05-19T02:12:35.558Z,9.013
2023-05-19T02:14:35.479Z,8.997
2023-05-19T02:15:35.125Z,8.959
2023-05-19T02:16:35.756Z,8.991
2023-05-19T02:17:35.260Z,9.021
2023-05-19T02:19:35.634Z,8.978
2023-05-19T02:20:35.648Z,8.927
2023-05-19T02:21:35.186Z,8.935
2023-05-19T02:22:35.675Z,8.962
2023-05-19T02:23:35.535Z,8.973
2023-05-19T02:24:35.000Z,9.010
2023-05-19T02:25:35.646Z,9.045
2023-05-19T02:26:35.324Z,9.031
2023-05-19T02:27:35.915Z,9.128
2023-05-19T02:28:35.326Z,9.144
2023-05-19T02:29:35.862Z,9.250
2023-05-19T02:30:35.824Z,9.218
2023-05-19T02:31:35.298Z,9.248
2023-05-19T02:32:35.046Z,9.290
2023-05-19T02:33:35.782Z,9.357
2023-05-19T02:35:35.787Z,9.520
2023-05-19T02:36:35.309Z,9.590
2023-05-19T02:37:35.835Z,9.672
2023-05-19T02:38:35.320Z,9.659
2023-05-19T02:39:35.944Z,9.699
2023-05-19T02:40:35.994Z,9.750
2023-05-19T02:41:35.481Z,9.758
2023-05-19T02:44:35.030Z,9.833
2023-05-19T02:45:35.486Z,9.825
2023-05-19T02:46:35.363Z,9.838
2023-05-19T02:47:38.839Z,9.849
2023-05-19T02:49:34.936Z,9.950
2023-05-19T02:50:36.074Z,9.945
2023-05-19T02:51:35.591Z,9.953
2023-05-19T02:52:35.055Z,9.953
2023-05-19T02:53:35.561Z,10.009
2023-05-19T02:54:34.985Z,10.054
2023-05-19T02:55:35.530Z,10.017
2023-05-19T02:56:35.005Z,10.060
2023-05-19T02:57:35.447Z,10.089
2023-05-19T02:58:34.999Z,10.076
2023-05-19T02:59:35.527Z,10.105
2023-05-19T03:00:35.932Z,10.124
2023-05-19T03:02:35.767Z,10.174
2023-05-19T03:03:36.135Z,10.180
2023-05-19T03:04:34.921Z,10.164
2023-05-19T03:05:35.377Z,10.204
2023-05-19T03:06:35.835Z,10.196
2023-05-19T03:07:35.238Z,10.185
2023-05-19T03:08:35.750Z,10.201
2023-05-19T03:09:35.090Z,10.238
2023-05-19T03:10:36.161Z,10.249
2023-05-19T03:11:35.685Z,10.204
2023-05-19T03:13:35.622Z,10.190
2023-05-19T03:14:35.060Z,10.246
2023-05-19T03:15:35.792Z,10.209
2023-05-19T03:16:35.879Z,10.204
2023-05-19T03:17:36.393Z,10.212
2023-05-19T03:18:35.763Z,10.257
2023-05-19T03:20:35.245Z,10.294
2023-05-19T03:21:35.853Z,10.313
2023-05-19T03:22:35.462Z,10.201
2023-05-19T03:23:34.915Z,10.222
2023-05-19T03:24:35.425Z,10.249
2023-05-19T03:25:34.860Z,10.241
2023-05-19T03:26:35.474Z,10.238
2023-05-19T03:27:34.883Z,10.222
2023-05-19T03:28:35.332Z,10.222
2023-05-19T03:29:35.852Z,10.265
2023-05-19T03:30:36.038Z,10.308
2023-05-19T03:31:35.524Z,10.353
2023-05-19T03:33:35.535Z,10.351
2023-05-19T03:34:35.262Z,10.364
2023-05-19T03:35:35.741Z,10.337
2023-05-19T03:36:35.232Z,10.348
2023-05-19T03:37:35.635Z,10.351
2023-05-19T03:38:35.127Z,10.359
2023-05-19T03:39:35.520Z,10.356
2023-05-19T03:40:35.317Z,10.364
2023-05-19T03:41:35.890Z,10.356
2023-05-19T03:42:35.294Z,10.361
2023-05-19T03:43:35.829Z,10.372
2023-05-19T03:44:35.303Z,10.372
2023-05-19T03:45:35.834Z,10.364
2023-05-19T03:46:35.573Z,10.388
2023-05-19T03:47:35.214Z,10.388
2023-05-19T03:48:36.358Z,10.361
2023-05-19T03:49:35.774Z,10.351
2023-05-19T03:50:35.601Z,10.372
2023-05-19T03:51:35.612Z,10.353
2023-05-19T03:52:35.069Z,10.359
2023-05-19T03:53:35.614Z,10.329
2023-05-19T03:54:35.168Z,10.369
2023-05-19T03:55:35.644Z,10.359
2023-05-19T03:56:35.047Z,10.364
2023-05-19T03:57:35.530Z,10.345
2023-05-19T03:58:34.957Z,10.348
2023-05-19T03:59:35.399Z,10.351
2023-05-19T04:00:37.218Z,10.332
2023-05-19T04:01:35.679Z,10.356
2023-05-19T04:02:35.437Z,10.351
2023-05-19T04:03:35.941Z,10.367
2023-05-19T04:04:36.243Z,10.335
2023-05-19T04:05:35.095Z,10.300
2023-05-19T04:06:35.566Z,10.100
2023-05-19T04:07:35.251Z,9.934
2023-05-19T04:08:35.887Z,9.827
2023-05-19T04:09:35.288Z,9.817
2023-05-19T04:10:36.402Z,9.774
2023-05-19T04:11:34.875Z,9.696
2023-05-19T04:12:35.294Z,9.680
2023-05-19T04:13:35.762Z,9.582
2023-05-19T04:14:35.337Z,9.611
2023-05-19T04:15:36.111Z,9.584
2023-05-19T04:16:35.820Z,9.493
2023-05-19T04:17:35.515Z,9.523
2023-05-19T04:18:38.260Z,9.504
2023-05-19T04:19:35.900Z,9.512
2023-05-19T04:20:35.725Z,9.456
2023-05-19T04:22:35.673Z,9.491
2023-05-19T04:23:35.076Z,9.549
2023-05-19T04:24:35.576Z,9.480
2023-05-19T04:25:34.974Z,9.397
2023-05-19T04:26:35.497Z,9.416
2023-05-19T04:27:35.590Z,9.352
2023-05-19T04:28:35.023Z,9.309
2023-05-19T04:29:35.470Z,9.277
2023-05-19T04:30:35.518Z,9.277
2023-05-19T04:32:35.421Z,9.290
2023-05-19T04:33:35.051Z,9.347
2023-05-19T04:34:35.509Z,9.328
2023-05-19T04:35:34.941Z,9.333
2023-05-19T04:36:35.406Z,9.413
2023-05-19T04:37:34.887Z,9.443
2023-05-19T04:38:35.303Z,9.467
2023-05-19T04:39:35.750Z,9.459
2023-05-19T04:40:35.901Z,9.456
2023-05-19T04:41:35.418Z,9.453
2023-05-19T04:44:35.032Z,9.501
2023-05-19T04:45:35.437Z,9.451
2023-05-19T04:46:35.057Z,9.459
2023-05-19T04:47:35.872Z,9.453
2023-05-19T04:48:35.515Z,9.485
2023-05-19T04:49:35.037Z,9.517
2023-05-19T04:50:36.356Z,9.453
2023-05-19T04:52:35.554Z,9.536
2023-05-19T04:53:34.975Z,9.555
2023-05-19T04:54:35.418Z,9.595
2023-05-19T04:55:34.944Z,9.638
2023-05-19T04:56:35.418Z,9.616
2023-05-19T04:57:34.877Z,9.667
2023-05-19T04:58:35.373Z,9.776
2023-05-19T04:59:35.554Z,9.875
2023-05-19T05:00:35.651Z,9.915
2023-05-19T05:01:35.826Z,9.987
2023-05-19T05:02:35.639Z,10.003
2023-05-19T05:03:35.598Z,9.998
2023-05-19T05:05:35.927Z,10.102
2023-05-19T05:06:35.356Z,10.041
2023-05-19T05:07:37.917Z,10.105
2023-05-19T05:08:35.394Z,10.137
2023-05-19T05:09:34.848Z,10.180
2023-05-19T05:10:35.844Z,10.185
2023-05-19T05:11:35.215Z,10.188
2023-05-19T05:12:35.855Z,10.278
2023-05-19T05:13:35.293Z,10.260
2023-05-19T05:14:35.854Z,10.278
2023-05-19T05:15:35.295Z,10.300
2023-05-19T05:16:36.289Z,10.455
2023-05-19T05:17:35.309Z,10.516
2023-05-19T05:18:34.890Z,10.417
2023-05-19T05:19:35.854Z,10.457
2023-05-19T05:20:35.927Z,10.535
2023-05-19T05:21:35.404Z,10.564
2023-05-19T05:22:35.802Z,10.489
2023-05-19T05:23:35.247Z,10.452
2023-05-19T05:24:35.706Z,10.425
2023-05-19T05:25:35.918Z,10.481
2023-05-19T05:26:35.326Z,10.425
2023-05-19T05:27:35.837Z,10.500
2023-05-19T05:28:35.331Z,10.457
2023-05-19T05:29:35.822Z,10.591
2023-05-19T05:30:35.364Z,10.682
2023-05-19T05:31:35.791Z,10.722
2023-05-19T05:32:35.685Z,10.695
2023-05-19T05:33:35.673Z,10.703
2023-05-19T05:34:35.150Z,10.807
2023-05-19T05:35:36.270Z,10.861
2023-05-19T05:36:35.711Z,10.898
2023-05-19T05:37:35.148Z,10.981
2023-05-19T05:38:35.574Z,11.069
2023-05-19T05:39:34.987Z,11.152
2023-05-19T05:40:35.408Z,11.160
2023-05-19T05:41:34.851Z,11.339
2023-05-19T05:42:38.896Z,11.317
2023-05-19T05:43:35.333Z,11.365
2023-05-19T05:44:35.846Z,11.285
2023-05-19T05:45:35.996Z,11.304
2023-05-19T05:46:36.122Z,11.419
2023-05-19T05:47:35.754Z,11.429
2023-05-19T05:48:35.263Z,11.483
2023-05-19T05:49:35.729Z,11.563
2023-05-19T05:50:35.139Z,11.707
2023-05-19T05:51:35.675Z,11.795
2023-05-19T05:52:35.139Z,11.907
2023-05-19T05:53:35.579Z,11.947
2023-05-19T05:54:35.128Z,11.955
2023-05-19T05:55:35.934Z,11.950
2023-05-19T05:56:35.452Z,11.961
2023-05-19T05:59:34.959Z,12.193
2023-05-19T06:00:36.272Z,12.132
2023-05-19T06:01:38.169Z,12.289
2023-05-19T06:03:35.913Z,12.444
2023-05-19T06:04:35.526Z,12.247
2023-05-19T06:05:35.261Z,12.271
2023-05-19T06:06:35.017Z,12.498
2023-05-19T06:07:35.481Z,12.668
2023-05-19T06:08:34.948Z,12.417
2023-05-19T06:09:35.702Z,12.594
2023-05-19T06:10:36.344Z,12.759
2023-05-19T06:12:35.905Z,12.981
2023-05-19T06:13:35.317Z,13.128
2023-05-19T06:14:35.791Z,13.216
2023-05-19T06:15:35.835Z,13.136
2023-05-19T06:16:35.730Z,13.200
2023-05-19T06:17:35.656Z,13.133
2023-05-19T06:18:35.329Z,12.762
2023-05-19T06:19:36.044Z,12.658
2023-05-19T06:20:36.893Z,12.639
2023-05-19T06:21:35.379Z,12.364
2023-05-19T06:22:34.851Z,12.519
2023-05-19T06:23:35.396Z,12.663
2023-05-19T06:24:35.205Z,12.722
2023-05-19T06:25:36.297Z,12.570
2023-05-19T06:26:35.757Z,12.572
2023-05-19T06:27:37.714Z,12.700
2023-05-19T06:28:35.238Z,12.919
2023-05-19T06:29:35.692Z,12.839
2023-05-19T06:30:35.805Z,12.775
2023-05-19T06:32:35.345Z,12.938
2023-05-19T06:33:38.380Z,13.197
2023-05-19T06:34:34.826Z,12.965
2023-05-19T06:35:35.397Z,13.285
2023-05-19T06:36:35.878Z,12.837
2023-05-19T06:37:35.449Z,12.935
2023-05-19T06:38:35.390Z,13.029
2023-05-19T06:41:35.389Z,13.357
2023-05-19T06:42:34.859Z,13.421
2023-05-19T06:43:35.390Z,13.170
2023-05-19T06:44:35.863Z,13.005
2023-05-19T06:45:35.388Z,12.943
2023-05-19T06:46:35.102Z,13.165
2023-05-19T06:47:34.905Z,13.197
2023-05-19T06:48:35.571Z,13.005
2023-05-19T06:49:35.063Z,13.357
2023-05-19T06:50:35.940Z,13.261
2023-05-19T06:51:35.431Z,13.515
2023-05-19T06:52:34.905Z,13.488
2023-05-19T06:53:35.369Z,13.373
2023-05-19T06:54:34.873Z,13.285
2023-05-19T06:55:46.959Z,13.419
2023-05-19T06:57:35.864Z,13.432
2023-05-19T06:58:35.360Z,13.376
2023-05-19T06:59:35.866Z,13.555
2023-05-19T07:00:35.686Z,13.285
2023-05-19T07:02:35.556Z,13.208
2023-05-19T07:03:35.878Z,13.106
2023-05-19T07:04:34.967Z,13.277
2023-05-19T07:05:35.458Z,13.194
2023-05-19T07:06:35.043Z,13.309
2023-05-19T07:07:35.556Z,13.395
2023-05-19T07:08:35.614Z,13.373
2023-05-19T07:09:35.252Z,13.688
2023-05-19T07:10:36.523Z,13.448
2023-05-19T07:11:34.969Z,13.579
2023-05-19T07:12:35.492Z,13.504
2023-05-19T07:13:36.894Z,13.651
2023-05-19T07:14:35.346Z,13.777
2023-05-19T07:15:35.953Z,13.531
2023-05-19T07:16:35.622Z,13.638
2023-05-19T07:18:35.028Z,13.627
2023-05-19T07:19:35.955Z,13.715
2023-05-19T07:20:36.327Z,13.846
2023-05-19T07:22:35.193Z,14.185
2023-05-19T07:23:35.680Z,14.425
2023-05-19T07:24:35.152Z,14.436
2023-05-19T07:25:35.699Z,14.508
2023-05-19T07:26:35.107Z,14.463
2023-05-19T07:27:35.599Z,14.046
2023-05-19T07:28:35.032Z,13.737
2023-05-19T07:29:35.415Z,13.870
2023-05-19T07:30:35.616Z,14.244
2023-05-19T07:31:35.552Z,14.455
2023-05-19T07:32:35.521Z,14.172
2023-05-19T07:33:35.149Z,14.196
2023-05-19T07:34:34.926Z,14.140
2023-05-19T07:35:35.639Z,13.910
2023-05-19T07:36:35.122Z,14.150
2023-05-19T07:37:35.560Z,14.340
2023-05-19T07:38:35.069Z,13.996
2023-05-19T07:39:35.831Z,14.292
2023-05-19T07:40:35.575Z,14.145
2023-05-19T07:41:36.452Z,14.014
2023-05-19T07:42:35.146Z,14.324
2023-05-19T07:43:35.659Z,14.677
2023-05-19T07:44:35.072Z,15.163
2023-05-19T07:45:35.831Z,14.871
2023-05-19T07:46:35.945Z,15.114
2023-05-19T07:47:36.029Z,14.757
2023-05-19T07:49:34.931Z,14.922
2023-05-19T07:50:35.842Z,15.221
2023-05-19T07:51:35.246Z,15.438
2023-05-19T07:52:35.735Z,15.480
2023-05-19T07:53:35.505Z,15.504
2023-05-19T07:54:34.992Z,16.105
2023-05-19T07:55:35.550Z,16.329
2023-05-19T07:56:34.977Z,15.993
2023-05-19T07:57:35.472Z,15.734
2023-05-19T07:58:35.009Z,15.347
2023-05-19T07:59:35.500Z,15.675
2023-05-19T08:00:35.627Z,15.966
2023-05-19T08:02:36.352Z,16.006
2023-05-19T08:03:35.857Z,16.204
2023-05-19T08:04:36.027Z,16.236
2023-05-19T08:05:35.633Z,16.954
2023-05-19T08:06:35.104Z,16.818
2023-05-19T08:07:35.943Z,16.028
2023-05-19T08:08:35.506Z,15.819
2023-05-19T08:09:35.153Z,16.412
2023-05-19T08:10:36.079Z,16.727
2023-05-19T08:11:35.506Z,16.757
2023-05-19T08:12:34.948Z,16.853
2023-05-19T08:13:35.435Z,16.786
2023-05-19T08:14:34.923Z,16.730
2023-05-19T08:15:35.752Z,16.629
2023-05-19T08:16:35.630Z,16.970
2023-05-19T08:17:35.383Z,16.295
2023-05-19T08:18:35.166Z,16.185
2023-05-19T08:19:35.875Z,16.717
2023-05-19T08:20:36.042Z,15.977
2023-05-19T08:21:35.634Z,15.707
2023-05-19T08:23:35.680Z,16.615
2023-05-19T08:24:35.213Z,16.353
2023-05-19T08:25:35.731Z,15.769
2023-05-19T08:26:37.043Z,16.332
2023-05-19T08:27:35.391Z,16.177
2023-05-19T08:28:35.935Z,16.102
2023-05-19T08:29:35.373Z,16.247
2023-05-19T08:30:35.242Z,16.204
2023-05-19T08:31:35.933Z,16.629
2023-05-19T08:32:35.736Z,16.826
2023-05-19T08:34:35.811Z,16.484
2023-05-19T08:35:35.258Z,16.976
2023-05-19T08:36:35.725Z,17.237
2023-05-19T08:37:36.863Z,16.978
2023-05-19T08:39:34.863Z,16.797
2023-05-19T08:40:35.836Z,16.629
2023-05-19T08:41:35.418Z,16.375
2023-05-19T08:44:35.759Z,16.909
2023-05-19T08:45:36.001Z,17.061
2023-05-19T08:47:35.520Z,16.215
2023-05-19T08:48:35.123Z,16.193
2023-05-19T08:49:35.653Z,15.862
2023-05-19T08:50:35.528Z,15.649
2023-05-19T08:51:35.111Z,15.689
2023-05-19T08:52:35.695Z,16.126
2023-05-19T08:53:39.706Z,16.054
2023-05-19T08:55:36.288Z,16.543
2023-05-19T08:56:35.772Z,16.340
2023-05-19T08:58:37.831Z,15.705
2023-05-19T08:59:35.351Z,15.707
2023-05-19T09:00:37.178Z,15.560
2023-05-19T09:02:36.026Z,15.638
2023-05-19T09:03:36.047Z,15.643
2023-05-19T09:04:37.417Z,15.691
2023-05-19T09:05:35.864Z,15.694
2023-05-19T09:06:35.674Z,15.520
2023-05-19T09:07:35.113Z,15.750
2023-05-19T09:08:35.538Z,15.777
2023-05-19T09:09:34.972Z,16.188
2023-05-19T09:10:38.307Z,16.145
2023-05-19T09:11:35.753Z,16.495
2023-05-19T09:12:35.184Z,16.612
2023-05-19T09:13:35.658Z,16.423
2023-05-19T09:14:35.157Z,16.671
2023-05-19T09:15:36.636Z,16.805
2023-05-19T09:16:35.966Z,16.591
2023-05-19T09:17:35.729Z,16.081
2023-05-19T09:19:35.529Z,16.615
2023-05-19T09:20:34.996Z,16.404
2023-05-19T09:21:35.550Z,16.145
2023-05-19T09:24:34.949Z,16.017
2023-05-19T09:25:35.853Z,16.265
2023-05-19T09:26:35.451Z,16.434
2023-05-19T09:29:35.223Z,16.637
2023-05-19T09:30:35.777Z,16.818
2023-05-19T09:31:35.439Z,16.089
2023-05-19T09:32:35.906Z,16.751
2023-05-19T09:34:35.088Z,16.490
2023-05-19T09:35:36.377Z,17.002
2023-05-19T09:36:34.881Z,17.211
2023-05-19T09:37:35.390Z,16.829
2023-05-19T09:38:35.058Z,17.168
2023-05-19T09:39:35.657Z,17.817
2023-05-19T09:40:35.620Z,17.766
2023-05-19T09:41:35.477Z,17.363
2023-05-19T09:43:35.902Z,16.738
2023-05-19T09:44:35.476Z,17.058
2023-05-19T09:45:35.355Z,17.189
2023-05-19T09:47:35.245Z,17.827
2023-05-19T09:48:35.984Z,17.689
2023-05-19T09:49:35.729Z,18.490
2023-05-19T09:50:35.134Z,17.870
2023-05-19T09:51:35.572Z,18.589
2023-05-19T09:52:35.233Z,17.451
2023-05-19T09:53:35.750Z,16.813
2023-05-19T09:54:35.381Z,17.355
2023-05-19T09:55:36.820Z,17.333
2023-05-19T09:56:35.422Z,17.029
2023-05-19T09:57:34.853Z,17.058
2023-05-19T09:58:35.854Z,17.088
2023-05-19T09:59:38.825Z,17.245
2023-05-19T10:02:36.038Z,16.690
2023-05-19T10:03:35.727Z,16.455
2023-05-19T10:04:35.402Z,16.375
2023-05-19T10:05:35.591Z,16.383
2023-05-19T10:06:35.300Z,16.418
2023-05-19T10:07:35.809Z,16.257
2023-05-19T10:08:35.289Z,16.343
2023-05-19T10:09:35.837Z,16.434
2023-05-19T10:10:35.342Z,16.706
2023-05-19T10:11:35.873Z,16.639
2023-05-19T10:12:35.408Z,16.207
2023-05-19T10:13:35.063Z,16.466
2023-05-19T10:14:35.777Z,16.474
2023-05-19T10:15:50.013Z,16.960
2023-05-19T10:16:35.161Z,16.976
2023-05-19T10:17:36.172Z,16.834
2023-05-19T10:18:35.232Z,17.163
2023-05-19T10:19:35.786Z,17.133
2023-05-19T10:20:35.692Z,17.179
2023-05-19T10:21:35.281Z,17.486
2023-05-19T10:22:35.767Z,17.208
2023-05-19T10:23:35.308Z,17.363
2023-05-19T10:24:35.794Z,17.331
2023-05-19T10:25:35.774Z,17.761
2023-05-19T10:27:35.737Z,17.651
2023-05-19T10:28:35.148Z,17.432
2023-05-19T10:29:35.853Z,17.689
2023-05-19T10:30:35.634Z,17.406
2023-05-19T10:31:35.187Z,17.451
2023-05-19T10:32:36.486Z,17.536
2023-05-19T10:33:35.287Z,18.164
2023-05-19T10:34:35.832Z,17.985
2023-05-19T10:35:35.654Z,18.305
2023-05-19T10:36:35.143Z,19.229
2023-05-19T10:37:35.666Z,19.152
2023-05-19T10:38:35.683Z,18.914
2023-05-19T10:39:35.557Z,19.665
2023-05-19T10:41:36.390Z,19.601
2023-05-19T10:42:34.910Z,19.526
2023-05-19T10:43:35.651Z,19.590
2023-05-19T10:44:35.191Z,20.087
2023-05-19T10:45:36.278Z,19.363
2023-05-19T10:47:35.785Z,19.419
2023-05-19T10:48:35.319Z,19.782
2023-05-19T10:49:35.738Z,20.183
2023-05-19T10:50:35.184Z,19.376
2023-05-19T10:51:35.667Z,18.952
2023-05-19T10:52:35.078Z,19.128
2023-05-19T10:53:35.532Z,18.164
2023-05-19T10:54:34.962Z,19.277
2023-05-19T10:55:35.934Z,20.180
2023-05-19T10:56:35.455Z,20.965
2023-05-19T10:58:35.655Z,20.757
2023-05-19T10:59:35.146Z,20.167
2023-05-19T11:00:35.620Z,20.223
2023-05-19T11:01:35.393Z,20.060
2023-05-19T11:02:36.067Z,20.300
2023-05-19T11:03:35.338Z,20.450
2023-05-19T11:04:35.593Z,20.380
2023-05-19T11:05:35.580Z,19.870
2023-05-19T11:07:34.939Z,19.344
2023-05-19T11:08:35.407Z,19.472
2023-05-19T11:09:45.675Z,19.147
2023-05-19T11:11:37.567Z,18.818
2023-05-19T11:12:35.095Z,18.727
2023-05-19T11:13:36.729Z,18.639
2023-05-19T11:14:35.360Z,18.984
2023-05-19T11:15:36.906Z,18.920
2023-05-19T11:16:35.575Z,18.957
2023-05-19T11:17:37.118Z,19.104
2023-05-19T11:19:35.737Z,19.467
2023-05-19T11:20:35.366Z,19.828
2023-05-19T11:21:35.466Z,20.049
2023-05-19T11:23:38.454Z,19.745
2023-05-19T11:25:36.180Z,20.079
2023-05-19T11:26:35.838Z,20.284
2023-05-19T11:28:35.379Z,19.654
2023-05-19T11:29:37.438Z,19.681
2023-05-19T11:32:36.450Z,18.957
2023-05-19T11:33:35.848Z,19.056
2023-05-19T11:34:35.487Z,19.213
2023-05-19T11:35:39.130Z,18.813
2023-05-19T11:36:35.171Z,18.626
2023-05-19T11:37:36.186Z,18.746
2023-05-19T11:38:35.928Z,19.107
2023-05-19T11:39:35.697Z,19.424
2023-05-19T11:40:35.634Z,19.384
2023-05-19T11:42:35.157Z,20.316
2023-05-19T11:43:36.042Z,20.209
2023-05-19T11:44:35.722Z,20.690
2023-05-19T11:45:36.430Z,20.057
2023-05-19T11:46:35.435Z,19.841
2023-05-19T11:48:00.805Z,20.017
2023-05-19T11:49:35.511Z,20.135
2023-05-19T11:51:36.061Z,19.582
2023-05-19T11:52:35.962Z,19.310
2023-05-19T11:53:37.859Z,19.691
2023-05-19T11:54:36.053Z,19.523
2023-05-19T11:56:35.324Z,20.063
2023-05-19T11:57:36.643Z,20.311
2023-05-19T11:58:35.697Z,20.922
2023-05-19T11:59:38.327Z,21.149
2023-05-19T12:01:35.229Z,21.945
2023-05-19T12:02:36.332Z,22.308
2023-05-19T12:03:35.997Z,22.271
2023-05-19T12:04:35.887Z,22.324
2023-05-19T12:05:43.455Z,22.210
2023-05-19T12:06:35.378Z,20.519
2023-05-19T12:07:34.996Z,20.370
2023-05-19T12:08:35.747Z,21.224
2023-05-19T12:09:35.257Z,21.117
2023-05-19T12:10:35.938Z,20.695
2023-05-19T12:11:35.463Z,20.319
2023-05-19T12:12:34.984Z,21.334
2023-05-19T12:13:35.499Z,22.111
2023-05-19T12:14:34.989Z,22.188
2023-05-19T12:15:35.750Z,22.792
2023-05-19T12:16:38.086Z,21.430
2023-05-19T12:19:35.899Z,21.822
2023-05-19T12:20:35.842Z,21.900
2023-05-19T12:21:40.684Z,22.271
2023-05-19T12:22:35.702Z,22.169
2023-05-19T12:23:35.765Z,22.639
2023-05-19T12:24:35.203Z,22.431
2023-05-19T12:25:36.652Z,22.145
2023-05-19T12:26:35.321Z,21.379
2023-05-19T12:27:37.471Z,20.679
2023-05-19T12:29:35.501Z,19.729
2023-05-19T12:30:36.601Z,19.590
2023-05-19T12:32:35.568Z,20.020
2023-05-19T12:33:37.559Z,20.193
2023-05-19T12:34:35.043Z,19.876
2023-05-19T12:35:35.626Z,19.411
2023-05-19T12:36:35.213Z,19.342
2023-05-19T12:37:35.661Z,19.649
2023-05-19T12:38:35.103Z,19.550
2023-05-19T12:39:35.642Z,19.889
2023-05-19T12:40:36.508Z,20.452
2023-05-19T12:41:35.415Z,20.589
2023-05-19T12:44:35.215Z,20.156
2023-05-19T12:45:35.867Z,20.511
2023-05-19T12:46:35.818Z,20.487
2023-05-19T12:47:35.521Z,20.434
2023-05-19T12:48:35.231Z,20.653
2023-05-19T12:49:35.714Z,20.081
2023-05-19T12:50:35.635Z,20.124
2023-05-19T12:51:35.491Z,20.116
2023-05-19T12:52:34.992Z,20.233
2023-05-19T12:53:35.486Z,20.327
2023-05-19T12:54:35.329Z,21.147
2023-05-19T12:55:34.890Z,20.693
2023-05-19T12:56:35.564Z,20.121
2023-05-19T12:57:35.130Z,20.017
2023-05-19T12:58:36.698Z,19.977
2023-05-19T12:59:44.262Z,20.076
2023-05-19T13:00:36.959Z,19.828
2023-05-19T13:01:35.478Z,20.044
2023-05-19T13:02:35.499Z,20.653
2023-05-19T13:03:36.133Z,21.197
2023-05-19T13:04:35.220Z,22.004
2023-05-19T13:05:35.044Z,22.354
2023-05-19T13:06:35.605Z,22.655
2023-05-19T13:07:35.315Z,22.581
2023-05-19T13:08:35.720Z,22.479
2023-05-19T13:09:35.200Z,23.157
2023-05-19T13:10:36.218Z,23.750
2023-05-19T13:11:35.701Z,23.155
2023-05-19T13:12:35.169Z,22.316
2023-05-19T13:13:35.698Z,22.335
2023-05-19T13:14:35.137Z,22.071
2023-05-19T13:15:35.549Z,21.926
2023-05-19T13:16:35.294Z,21.659
2023-05-19T13:17:35.072Z,21.609
2023-05-19T13:18:35.685Z,21.622
2023-05-19T13:19:35.734Z,22.762
2023-05-19T13:20:38.458Z,23.304
2023-05-19T13:21:34.866Z,23.745
2023-05-19T13:22:35.409Z,25.219
2023-05-19T13:23:34.911Z,25.737
2023-05-19T13:24:35.486Z,25.705
2023-05-19T13:25:34.954Z,25.462
2023-05-19T13:26:35.663Z,24.861
2023-05-19T13:27:35.156Z,25.037
2023-05-19T13:28:35.607Z,24.311
2023-05-19T13:29:35.046Z,24.231
2023-05-19T13:30:36.232Z,25.085
2023-05-19T13:31:36.121Z,23.812
2023-05-19T13:32:35.840Z,23.123
2023-05-19T13:33:35.404Z,22.266
2023-05-19T13:34:34.932Z,21.601
2023-05-19T13:35:35.387Z,21.969
2023-05-19T13:36:35.697Z,21.713
2023-05-19T13:37:35.784Z,22.613
2023-05-19T13:38:35.431Z,22.728
2023-05-19T13:41:35.799Z,22.810
2023-05-19T13:42:35.354Z,23.206
2023-05-19T13:43:35.810Z,23.232
2023-05-19T13:44:35.262Z,23.216
2023-05-19T13:45:35.835Z,23.139
2023-05-19T13:46:49.984Z,23.649
2023-05-19T13:47:36.106Z,22.185
2023-05-19T13:48:35.704Z,21.272
2023-05-19T13:49:35.268Z,21.577
2023-05-19T13:50:35.777Z,21.796
2023-05-19T13:51:35.346Z,21.681
2023-05-19T13:52:38.199Z,21.627
2023-05-19T13:53:35.780Z,21.507
2023-05-19T13:54:35.359Z,21.344
2023-05-19T13:55:35.876Z,22.071
2023-05-19T13:58:35.310Z,23.513
2023-05-19T13:59:38.813Z,23.024
2023-05-19T14:00:36.220Z,22.247